^^
Datos históricos de la estación: Murcia-Puente Tocinos
Diario Informe para Octubre 21, 2019 Unidades:  Métrico    Ingés   Ambas
Diario Semanal Mensual Anual
  Máxima: Mínima: Promedio:
Temperatura: 19.3 °C 11.9 °C 15.8 °C
Punto de rocio: 11.5 °C 6.8 °C 8.7 °C
Humedad: 78% 44.6% 64%
Velocidad viento: 9.5km/h 0km/h 5.3km/h
Racha viento: 16.7km/h - -
Viento- - SSE
Presión: 1016.7 hPa 1013.9 hPa -
Precipitación: 0.0 mm    
 
 
Tabla de datos para Octubre 21, 2019
Hora Temperatura Punto de rocio Presión Viento Velocidad viento Racha viento Humedad Intensidad lluvia(por hora) Nubes
00:04 15.8 °C 11.3 °C 1013.9 hPa SSO 4.8 km/h 11.3 km/h 74.7% 0.0 mm
00:09 15.8 °C 11.2 °C 1014.1 hPa Sur 5 km/h 11.3 km/h 74.1% 0.0 mm
00:14 15.8 °C 11.4 °C 1014.1 hPa SE 5 km/h 8.4 km/h 75% 0.0 mm
00:19 15.8 °C 11.4 °C 1014.1 hPa ESE 5 km/h 11.9 km/h 75.3% 0.0 mm
00:24 15.6 °C 11.4 °C 1014.3 hPa SE 5 km/h 11.3 km/h 76% 0.0 mm
00:29 15.4 °C 11.3 °C 1014.3 hPa SSE 5 km/h 9.7 km/h 76.6% 0.0 mm
00:34 15.4 °C 11.4 °C 1014.3 hPa SSE 5.7 km/h 9.7 km/h 77% 0.0 mm
00:39 15.4 °C 11.4 °C 1014.3 hPa Sur 5.8 km/h 9.7 km/h 77% 0.0 mm
00:44 15.4 °C 11.4 °C 1014.3 hPa Sur 5.1 km/h 9.7 km/h 77% 0.0 mm
00:49 15.5 °C 11.5 °C 1014.3 hPa Sur 5 km/h 8 km/h 77% 0.0 mm
00:54 15.6 °C 11.5 °C 1014.4 hPa SSO 5 km/h 8 km/h 76.9% 0.0 mm
00:59 15.6 °C 11.4 °C 1014.4 hPa SSO 5 km/h 8 km/h 76% 0.0 mm
01:04 15.6 °C 11.2 °C 1014.4 hPa SO 4 km/h 8.4 km/h 75.2% 0.0 mm
01:09 15.7 °C 11.1 °C 1014.4 hPa SSO 3.9 km/h 8 km/h 74.6% 0.0 mm
01:14 15.7 °C 11.4 °C 1014.3 hPa Sur 3.9 km/h 8 km/h 75.8% 0.0 mm
01:19 15.5 °C 11.3 °C 1014.3 hPa Sur 3.9 km/h 8 km/h 76% 0.0 mm
01:24 15.3 °C 11.3 °C 1014.7 hPa SSO 3.9 km/h 8 km/h 77% 0.0 mm
01:29 15.3 °C 11.3 °C 1014.7 hPa SO 3.9 km/h 10 km/h 76.9% 0.0 mm
01:34 15.3 °C 11.1 °C 1014.7 hPa OSO 4.8 km/h 11.9 km/h 75.9% 0.0 mm
01:39 15.2 °C 10.8 °C 1014.8 hPa SO 5 km/h 11.3 km/h 74.8% 0.0 mm
01:44 15.2 °C 10.5 °C 1014.8 hPa SO 5.7 km/h 12.2 km/h 73.9% 0.0 mm
01:49 15.1 °C 10.3 °C 1014.8 hPa SO 5.8 km/h 13 km/h 73% 0.0 mm
01:54 15.1 °C 10.3 °C 1014.8 hPa SSO 6.3 km/h 11.3 km/h 73% 0.0 mm
01:59 15.2 °C 10.2 °C 1014.8 hPa SO 6.5 km/h 8.7 km/h 72.1% 0.0 mm
02:04 15.2 °C 10.1 °C 1014.8 hPa SO 4.9 km/h 8 km/h 71.5% 0.0 mm
02:09 15.2 °C 10 °C 1014.8 hPa SO 4.7 km/h 8 km/h 71% 0.0 mm
02:14 15.2 °C 9.9 °C 1014.8 hPa SO 4.7 km/h 8 km/h 71% 0.0 mm
02:19 15.1 °C 9.9 °C 1014.8 hPa Sur 4.7 km/h 7.6 km/h 71% 0.0 mm
02:24 15 °C 9.8 °C 1014.8 hPa SSE 4 km/h 8 km/h 71% 0.0 mm
02:29 14.9 °C 9.8 °C 1014.8 hPa SSE 3.9 km/h 8 km/h 71.4% 0.0 mm
02:34 14.8 °C 9.7 °C 1014.8 hPa SSE 3.3 km/h 4.8 km/h 71.4% 0.0 mm
02:39 14.8 °C 9.7 °C 1014.8 hPa Sur 3.2 km/h 7.4 km/h 71.3% 0.0 mm
02:44 14.8 °C 9.8 °C 1014.7 hPa SSO 3.2 km/h 8 km/h 72% 0.0 mm
02:49 14.7 °C 9.7 °C 1014.7 hPa SO 3.2 km/h 7.4 km/h 72% 0.0 mm
02:54 14.7 °C 9.7 °C 1014.7 hPa SO 3.8 km/h 9.3 km/h 72% 0.0 mm
02:59 14.5 °C 9.4 °C 1014.7 hPa SSO 3.9 km/h 9.7 km/h 71.3% 0.0 mm
03:04 14.5 °C 9.2 °C 1014.7 hPa SO 5.6 km/h 8 km/h 70.4% 0.0 mm
03:09 14.5 °C 8.9 °C 1014.7 hPa OSO 5.8 km/h 8 km/h 69.2% 0.0 mm
03:14 14.5 °C 8.8 °C 1014.7 hPa OSO 3.6 km/h 7.4 km/h 68.3% 0.0 mm
03:19 14.5 °C 8.6 °C 1014.7 hPa OSO 3.2 km/h 8 km/h 67.6% 0.0 mm
03:24 14.5 °C 8.2 °C 1014.8 hPa OSO 3.2 km/h 7.4 km/h 66.2% 0.0 mm
03:29 14.4 °C 8.1 °C 1014.8 hPa OSO 3.2 km/h 8 km/h 66% 0.0 mm
03:34 14.3 °C 8.2 °C 1014.8 hPa OSO 4.4 km/h 8.4 km/h 66.5% 0.0 mm
03:39 14.2 °C 8.1 °C 1014.8 hPa OSO 4.7 km/h 10 km/h 67% 0.0 mm
03:44 14 °C 8 °C 1014.6 hPa SSO 5.6 km/h 10 km/h 67% 0.0 mm
03:49 13.9 °C 7.8 °C 1014.6 hPa Sur 5.8 km/h 9.7 km/h 66.7% 0.0 mm
03:54 13.9 °C 7.7 °C 1014.6 hPa SSE 5.8 km/h 11.1 km/h 66% 0.0 mm
03:59 14.1 °C 7.8 °C 1014.6 hPa SSE 5.8 km/h 11.3 km/h 66% 0.0 mm
04:04 14 °C 7.6 °C 1014.6 hPa SSO 6.8 km/h 13.7 km/h 65.2% 0.0 mm
04:09 13.9 °C 7.5 °C 1014.6 hPa SSO 6.9 km/h 14.5 km/h 65.2% 0.0 mm
04:14 13.9 °C 7.6 °C 1014.5 hPa SO 7.5 km/h 12.9 km/h 65.6% 0.0 mm
04:19 13.9 °C 7.4 °C 1014.5 hPa SO 7.6 km/h 11.9 km/h 65% 0.0 mm
04:24 13.9 °C 7.4 °C 1014.5 hPa SO 7 km/h 11.3 km/h 65% 0.0 mm
04:29 13.8 °C 7.5 °C 1014.4 hPa SO 6.9 km/h 11.3 km/h 65.6% 0.0 mm
04:34 13.8 °C 7.6 °C 1014.4 hPa SO 6.5 km/h 10 km/h 66.3% 0.0 mm
04:39 13.7 °C 7.7 °C 1014.4 hPa SO 6.5 km/h 11.9 km/h 66.9% 0.0 mm
04:44 13.7 °C 7.6 °C 1014.4 hPa SO 6.9 km/h 11.3 km/h 66.8% 0.0 mm
04:49 13.7 °C 7.6 °C 1014.4 hPa OSO 6.9 km/h 9.7 km/h 67% 0.0 mm
04:54 13.6 °C 7.6 °C 1014.5 hPa SO 6.5 km/h 9.7 km/h 67% 0.0 mm
04:59 13.6 °C 7.6 °C 1014.5 hPa SO 6.5 km/h 9.7 km/h 67.2% 0.0 mm
05:04 13.6 °C 7.8 °C 1014.5 hPa SO 4.9 km/h 8.4 km/h 68% 0.0 mm
05:09 13.5 °C 7.7 °C 1014.5 hPa SSO 4.7 km/h 8 km/h 68% 0.0 mm
05:14 13.4 °C 7.8 °C 1014.4 hPa SSO 4.9 km/h 9.3 km/h 69% 0.0 mm
05:19 13.4 °C 7.8 °C 1014.4 hPa OSO 5 km/h 9.7 km/h 69% 0.0 mm
05:24 13.4 °C 7.8 °C 1014.4 hPa OSO 5 km/h 8 km/h 69% 0.0 mm
05:29 13.4 °C 8 °C 1014.3 hPa OSO 5 km/h 8 km/h 69.6% 0.0 mm
05:34 13.4 °C 8 °C 1014.3 hPa SO 4 km/h 9.3 km/h 70% 0.0 mm
05:39 13.3 °C 8 °C 1014.3 hPa SO 3.9 km/h 13 km/h 70.5% 0.0 mm
05:44 13.2 °C 8 °C 1014.3 hPa SO 6 km/h 12.9 km/h 70.6% 0.0 mm
05:49 13.2 °C 7.7 °C 1014.3 hPa SO 6.5 km/h 13 km/h 69.5% 0.0 mm
05:54 13.1 °C 7.5 °C 1014.3 hPa SO 7.4 km/h 13 km/h 68.9% 0.0 mm
05:59 13.1 °C 7.5 °C 1014.3 hPa SO 7.6 km/h 12.9 km/h 68.9% 0.0 mm
06:04 13.1 °C 7.6 °C 1014.3 hPa SO 7.6 km/h 11.3 km/h 69% 0.0 mm
06:09 13.1 °C 7.7 °C 1014.3 hPa SSO 7.6 km/h 11.3 km/h 69.9% 0.0 mm
06:14 13 °C 7.6 °C 1014.3 hPa SSO 6.6 km/h 11.3 km/h 70% 0.0 mm
06:19 12.9 °C 7.6 °C 1014.3 hPa SSO 6.5 km/h 9.7 km/h 70% 0.0 mm
06:24 12.9 °C 7.6 °C 1014.5 hPa SSO 6.5 km/h 9.7 km/h 70% 0.0 mm
06:29 12.8 °C 7.3 °C 1014.5 hPa SSE 6.5 km/h 9.7 km/h 69.2% 0.0 mm
06:34 12.7 °C 7.1 °C 1014.5 hPa Sur 6.9 km/h 13 km/h 69% 0.0 mm
06:39 12.5 °C 7 °C 1014.7 hPa SSO 6.9 km/h 14.8 km/h 69% 0.0 mm
06:44 12.3 °C 6.8 °C 1014.7 hPa SSO 9.1 km/h 15.6 km/h 69% 0.0 mm
06:49 12.3 °C 6.8 °C 1014.7 hPa SSO 9.5 km/h 16.1 km/h 69% 0.0 mm
06:54 12.3 °C 6.8 °C 1014.7 hPa SO 7.9 km/h 11.3 km/h 69% 0.0 mm
06:59 12.4 °C 6.9 °C 1014.6 hPa SO 7.6 km/h 11.3 km/h 69% 0.0 mm
07:04 12.4 °C 6.9 °C 1014.6 hPa SO 7 km/h 11.3 km/h 69% 0.0 mm
07:09 12.5 °C 6.9 °C 1014.6 hPa OSO 6.9 km/h 9.7 km/h 69% 0.0 mm
07:14 12.4 °C 6.9 °C 1014.5 hPa OSO 6 km/h 10 km/h 69.1% 0.0 mm
07:19 12.4 °C 7.1 °C 1014.5 hPa SO 5.8 km/h 9.7 km/h 70% 0.0 mm
07:24 12.4 °C 7.1 °C 1014.7 hPa SO 4.8 km/h 9.5 km/h 70% 0.0 mm
07:29 12.4 °C 7.1 °C 1014.7 hPa SO 4.7 km/h 10 km/h 70% 0.0 mm
07:34 12.4 °C 7.2 °C 1014.7 hPa SO 6.1 km/h 11.9 km/h 70.7% 0.0 mm
07:39 12.3 °C 7.2 °C 1014.9 hPa SO 6.5 km/h 11.3 km/h 71% 0.0 mm
07:44 12.3 °C 7.1 °C 1014.9 hPa SO 6.9 km/h 11.9 km/h 70.9% 0.0 mm
07:49 12.3 °C 7.2 °C 1014.9 hPa SO 6.9 km/h 11.3 km/h 70.9% 0.0 mm
07:54 12.3 °C 7 °C 1014.9 hPa SO 6.5 km/h 11.3 km/h 70.1% 0.0 mm
07:59 12.3 °C 7 °C 1014.8 hPa SO 6.5 km/h 8.7 km/h 70% 0.0 mm
08:04 12.3 °C 7 °C 1014.8 hPa Oeste 4.2 km/h 9.7 km/h 70% 0.0 mm
08:09 12.3 °C 7.2 °C 1015.1 hPa Oeste 3.9 km/h 9.7 km/h 70.9% 0.0 mm
08:14 12.3 °C 7.1 °C 1015.1 hPa Oeste 4.5 km/h 8 km/h 71% 0.0 mm
08:19 12.2 °C 7.1 °C 1015.1 hPa Oeste 4.7 km/h 9.3 km/h 71% 0.0 mm
08:24 12.2 °C 7.2 °C 1015.1 hPa ONO 4.9 km/h 11.1 km/h 71.6% 0.0 mm
08:29 12.2 °C 7.3 °C 1015.0 hPa ONO 5 km/h 11.3 km/h 72% 0.0 mm
08:34 12.2 °C 7.4 °C 1015.3 hPa ONO 5 km/h 8 km/h 72.3% 0.0 mm
08:39 12.2 °C 7.5 °C 1015.3 hPa ONO 5 km/h 8.4 km/h 73% 0.0 mm
08:44 12.2 °C 7.4 °C 1015.3 hPa ONO 4 km/h 8.4 km/h 73% 0.0 mm
08:49 12.1 °C 7.4 °C 1015.3 hPa Oeste 3.9 km/h 8 km/h 73.1% 0.0 mm
08:54 12 °C 7.4 °C 1015.8 hPa SO 3.3 km/h 8 km/h 73% 0.0 mm
08:59 12.1 °C 7.6 °C 1015.8 hPa SE 3.2 km/h 7.4 km/h 74.4% 0.0 mm
09:04 12.1 °C 7.9 °C 1015.8 hPa ESE 2.9 km/h 8 km/h 75.3% 0.0 mm
09:09 12.1 °C 8 °C 1015.8 hPa ESE 2.9 km/h 5.8 km/h 76% 0.0 mm
09:14 12 °C 7.8 °C 1015.8 hPa SE 3.2 km/h 7.4 km/h 76% 0.0 mm
09:19 11.9 °C 8 °C 1015.8 hPa Sur 3.2 km/h 8 km/h 76.9% 0.0 mm
09:24 11.9 °C 8 °C 1016.1 hPa Sur 3.2 km/h 8 km/h 77% 0.0 mm
09:29 11.9 °C 8 °C 1016.1 hPa Sur 3.2 km/h 3.7 km/h 77.1% 0.0 mm
09:34 11.9 °C 8.2 °C 1016.1 hPa Sur 0.5 km/h 3.2 km/h 78% 0.0 mm
09:39 12.1 °C 8.2 °C 1016.4 hPa Calm   4.7 km/h 76.9% 0.0 mm
09:44 12.2 °C 7.8 °C 1016.4 hPa Calm   7.4 km/h 74.6% 0.0 mm
09:49 12.3 °C 7.5 °C 1016.4 hPa Calm   8 km/h 72.3% 0.0 mm
09:54 12.4 °C 7.6 °C 1016.5 hPa NO 2.8 km/h 6.4 km/h 72% 0.0 mm
09:59 12.6 °C 7.8 °C 1016.5 hPa NO 3.2 km/h 5.8 km/h 72.7% 0.0 mm
10:04 12.7 °C 7.7 °C 1016.5 hPa OSO 2.9 km/h 9.5 km/h 71.7% 0.0 mm
10:09 12.8 °C 7.5 °C 1016.5 hPa SO 2.9 km/h 11.1 km/h 70.3% 0.0 mm
10:14 13 °C 7.2 °C 1016.4 hPa OSO 5.3 km/h 11.3 km/h 67.8% 0.0 mm
10:19 13.2 °C 7 °C 1016.4 hPa OSO 5.8 km/h 9.7 km/h 66.4% 0.0 mm
10:24 13.3 °C 6.9 °C 1016.6 hPa SO 5.8 km/h 11.1 km/h 65.5% 0.0 mm
10:29 13.6 °C 6.9 °C 1016.6 hPa SO 5.8 km/h 11.3 km/h 64.4% 0.0 mm
10:34 13.7 °C 6.8 °C 1016.7 hPa SO 6.8 km/h 11.3 km/h 63% 0.0 mm
10:39 13.7 °C 6.8 °C 1016.7 hPa OSO 6.9 km/h 9.7 km/h 63% 0.0 mm
10:44 13.8 °C 6.9 °C 1016.7 hPa OSO 6 km/h 8.7 km/h 63% 0.0 mm
10:49 13.9 °C 7.1 °C 1016.7 hPa OSO 5.8 km/h 9.7 km/h 63.4% 0.0 mm
10:54 14.1 °C 7.3 °C 1016.7 hPa Oeste 5.1 km/h 9.7 km/h 64% 0.0 mm
10:59 14.2 °C 7.5 °C 1016.6 hPa SO 5 km/h 11.1 km/h 64% 0.0 mm
11:04 14.3 °C 7.3 °C 1016.6 hPa SO 5 km/h 11.3 km/h 63% 0.0 mm
11:09 14.4 °C 7.4 °C 1016.6 hPa SSO 5 km/h 11.9 km/h 62.8% 0.0 mm
11:14 14.5 °C 7.3 °C 1016.6 hPa SO 6.6 km/h 11.3 km/h 62.1% 0.0 mm
11:19 14.7 °C 7.5 °C 1016.6 hPa SO 6.9 km/h 14.8 km/h 62% 0.0 mm
11:24 14.9 °C 7.7 °C 1016.6 hPa SSO 7.5 km/h 14.8 km/h 62% 0.0 mm
11:29 15.2 °C 7.9 °C 1016.6 hPa SSE 7.6 km/h 14.8 km/h 62% 0.0 mm
11:34 15.2 °C 8 °C 1016.6 hPa Sur 8.3 km/h 13.7 km/h 62.3% 0.0 mm
11:39 15.3 °C 8.2 °C 1016.7 hPa SSO 8.4 km/h 14.5 km/h 62.5% 0.0 mm
11:44 15.5 °C 8.3 °C 1016.7 hPa SSO 8.4 km/h 13 km/h 62% 0.0 mm
11:49 15.6 °C 8.4 °C 1016.7 hPa SSO 8.4 km/h 14.8 km/h 62% 0.0 mm
11:54 15.7 °C 8.5 °C 1016.7 hPa SSO 8.6 km/h 14.5 km/h 61.9% 0.0 mm
11:59 15.9 °C 8.4 °C 1016.6 hPa SSO 8.7 km/h 14.5 km/h 61.1% 0.0 mm
12:04 16 °C 8.3 °C 1016.6 hPa SSO 7.1 km/h 11.3 km/h 60.3% 0.0 mm
12:09 16.2 °C 8.1 °C 1016.7 hPa OSO 6.9 km/h 16.7 km/h 58.8% 0.0 mm
12:14 16.2 °C 7.8 °C 1016.7 hPa SO 8.2 km/h 16.1 km/h 57.4% 0.0 mm
12:19 16.2 °C 7.7 °C 1016.7 hPa OSO 8.4 km/h 15.6 km/h 57% 0.0 mm
12:24 16.3 °C 7.8 °C 1016.7 hPa OSO 8.6 km/h 16.1 km/h 57% 0.0 mm
12:29 16.3 °C 7.8 °C 1016.6 hPa OSO 8.7 km/h 14.5 km/h 57% 0.0 mm
12:34 16.4 °C 7.8 °C 1016.6 hPa OSO 7.7 km/h 14.8 km/h 56.7% 0.0 mm
12:39 16.4 °C 7.9 °C 1016.6 hPa OSO 7.6 km/h 14.5 km/h 57% 0.0 mm
12:44 16.5 °C 7.9 °C 1016.4 hPa SO 7 km/h 9.7 km/h 57% 0.0 mm
12:49 16.6 °C 7.9 °C 1016.4 hPa SO 6.9 km/h 9.7 km/h 56.7% 0.0 mm
12:54 16.7 °C 8 °C 1016.4 hPa SSO 5.3 km/h 11.1 km/h 56.7% 0.0 mm
12:59 16.7 °C 7.9 °C 1016.3 hPa SO 5 km/h 11.3 km/h 56% 0.0 mm
13:04 16.8 °C 7.7 °C 1016.3 hPa SO 5.7 km/h 11.1 km/h 55% 0.0 mm
13:09 16.9 °C 7.9 °C 1016.4 hPa SO 5.8 km/h 11.9 km/h 55.3% 0.0 mm
13:14 16.9 °C 8.1 °C 1016.4 hPa SSO 6.2 km/h 11.3 km/h 55.9% 0.0 mm
13:19 17.1 °C 8.1 °C 1016.4 hPa OSO 6.5 km/h 13.7 km/h 55.5% 0.0 mm
13:24 17.2 °C 8.2 °C 1016.4 hPa OSO 6 km/h 14.5 km/h 55.4% 0.0 mm
13:29 17.2 °C 7.8 °C 1016.1 hPa OSO 5.8 km/h 9.7 km/h 54.1% 0.0 mm
13:34 17.2 °C 7.9 °C 1016.1 hPa SSO 5.3 km/h 10 km/h 54.6% 0.0 mm
13:39 17.3 °C 8 °C 1016.1 hPa SSO 5 km/h 9.7 km/h 54.7% 0.0 mm
13:44 17.3 °C 8.2 °C 1016.0 hPa SSO 5 km/h 8 km/h 55% 0.0 mm
13:49 17.5 °C 8.4 °C 1016.0 hPa Sur 5 km/h 8 km/h 55% 0.0 mm
13:54 17.7 °C 8.4 °C 1016.0 hPa SE 3.6 km/h 8 km/h 54.3% 0.0 mm
13:59 17.8 °C 8.3 °C 1015.8 hPa SE 2.9 km/h 8.4 km/h 53.6% 0.0 mm
14:04 17.9 °C 8.2 °C 1015.8 hPa OSO 4.1 km/h 8 km/h 53% 0.0 mm
14:09 18 °C 8 °C 1015.8 hPa ONO 4.7 km/h 10 km/h 52% 0.0 mm
14:14 18 °C 8.1 °C 1015.7 hPa NO 5.8 km/h 9.7 km/h 52.2% 0.0 mm
14:19 18.1 °C 8.1 °C 1015.7 hPa NNE 6.5 km/h 9.7 km/h 52.3% 0.0 mm
14:24 18.2 °C 8.5 °C 1015.7 hPa NE 4.4 km/h 4.8 km/h 53% 0.0 mm
14:29 18.5 °C 8.5 °C 1015.4 hPa NE 3.2 km/h 7.4 km/h 52.1% 0.0 mm
14:34 18.7 °C 8.5 °C 1015.4 hPa SE 2.6 km/h 8 km/h 51.7% 0.0 mm
14:39 18.7 °C 8 °C 1015.4 hPa Este 2.2 km/h 8.4 km/h 49.5% 0.0 mm
14:44 18.7 °C 8.2 °C 1015.3 hPa Este 3.8 km/h 9.3 km/h 50.7% 0.0 mm
14:49 18.6 °C 8.6 °C 1015.3 hPa ENE 4.7 km/h 9.7 km/h 52.2% 0.0 mm
14:54 18.6 °C 8.8 °C 1015.3 hPa Este 4.1 km/h 9.5 km/h 52.8% 0.0 mm
14:59 18.6 °C 8.6 °C 1015.3 hPa ENE 3.9 km/h 9.7 km/h 52.3% 0.0 mm
15:04 18.5 °C 8.4 °C 1015.3 hPa Este 5.1 km/h 9.7 km/h 52% 0.0 mm
15:09 18.6 °C 8.5 °C 1015.3 hPa Este 5.8 km/h 10 km/h 51.8% 0.0 mm
15:14 18.7 °C 8.1 °C 1015.0 hPa NE 5.2 km/h 9.7 km/h 50.2% 0.0 mm
15:19 18.7 °C 8 °C 1015.0 hPa North 5 km/h 7.4 km/h 49.8% 0.0 mm
15:24 18.9 °C 8.2 °C 1015.0 hPa NE 3.6 km/h 8 km/h 49.9% 0.0 mm
15:29 19 °C 8 °C 1014.9 hPa NE 2.9 km/h 11.9 km/h 48.8% 0.0 mm
15:34 18.9 °C 7.7 °C 1014.9 hPa NE 5.2 km/h 11.9 km/h 48% 0.0 mm
15:39 18.9 °C 7.3 °C 1014.9 hPa ENE 6.5 km/h 11.3 km/h 47% 0.0 mm
15:44 18.9 °C 7.5 °C 1014.9 hPa NE 6 km/h 13 km/h 47.5% 0.0 mm
15:49 18.9 °C 7.7 °C 1014.9 hPa NE 5.8 km/h 13 km/h 48% 0.0 mm
15:54 18.9 °C 7.7 °C 1014.9 hPa NE 6.9 km/h 12.9 km/h 48% 0.0 mm
15:59 19 °C 7.7 °C 1014.8 hPa NE 7.6 km/h 13.7 km/h 48% 0.0 mm
16:04 19.1 °C 8 °C 1014.8 hPa NE 7.6 km/h 14.5 km/h 48.6% 0.0 mm
16:09 19.1 °C 8.1 °C 1014.9 hPa NE 7.6 km/h 11.3 km/h 48.9% 0.0 mm
16:14 19.2 °C 7.9 °C 1014.9 hPa NE 6.4 km/h 11.1 km/h 48.1% 0.0 mm
16:19 19.2 °C 7.7 °C 1014.9 hPa NE 5.8 km/h 11.9 km/h 47.3% 0.0 mm
16:24 19.1 °C 7.7 °C 1014.9 hPa NE 6.9 km/h 11.3 km/h 47.4% 0.0 mm
16:29 19.2 °C 7.4 °C 1014.7 hPa ENE 7.6 km/h 11.3 km/h 46.4% 0.0 mm
16:34 19.2 °C 7.5 °C 1014.7 hPa NE 6.8 km/h 11.1 km/h 46.8% 0.0 mm
16:39 19.2 °C 7.4 °C 1014.8 hPa NNE 6.5 km/h 13 km/h 46.4% 0.0 mm
16:44 19.2 °C 7.4 °C 1014.8 hPa NE 7.2 km/h 12.9 km/h 46.4% 0.0 mm
16:49 19.2 °C 7.6 °C 1014.8 hPa NE 7.6 km/h 11.3 km/h 46.9% 0.0 mm
16:54 19.2 °C 7.5 °C 1014.8 hPa NNE 6.4 km/h 11.1 km/h 46.6% 0.0 mm
16:59 19.2 °C 7.5 °C 1014.7 hPa NNE 5.8 km/h 11.3 km/h 46.5% 0.0 mm
17:04 19.3 °C 7.6 °C 1014.7 hPa ENE 6.2 km/h 9.7 km/h 46.6% 0.0 mm
17:09 19.3 °C 7.5 °C 1014.7 hPa NE 6.5 km/h 11.9 km/h 46.3% 0.0 mm
17:14 19.3 °C 7.1 °C 1014.7 hPa NE 6.5 km/h 11.3 km/h 45.1% 0.0 mm
17:19 19.3 °C 7 °C 1014.7 hPa NE 6.5 km/h 9.7 km/h 44.8% 0.0 mm
17:24 19.3 °C 6.9 °C 1014.8 hPa NE 5.3 km/h 9.5 km/h 44.6% 0.0 mm
17:29 19.2 °C 7 °C 1014.8 hPa NE 4.7 km/h 11.9 km/h 45% 0.0 mm
17:34 19.2 °C 6.9 °C 1014.8 hPa NE 6.2 km/h 11.3 km/h 44.9% 0.0 mm
17:39 19.2 °C 6.9 °C 1014.8 hPa NE 6.9 km/h 11.1 km/h 45% 0.0 mm
17:44 19.2 °C 7.1 °C 1014.7 hPa NE 6.6 km/h 11.3 km/h 45.5% 0.0 mm
17:49 19.2 °C 7.6 °C 1014.7 hPa NE 6.5 km/h 11.3 km/h 47.1% 0.0 mm
17:54 19.2 °C 8.1 °C 1014.7 hPa NE 6.5 km/h 11.3 km/h 48.5% 0.0 mm
17:59 19.1 °C 8.1 °C 1014.6 hPa NE 6.5 km/h 13 km/h 49.1% 0.0 mm
18:04 19.1 °C 8.4 °C 1014.6 hPa NE 7.2 km/h 13 km/h 50% 0.0 mm
18:09 19 °C 8.5 °C 1014.6 hPa NNE 7.6 km/h 12.9 km/h 50.6% 0.0 mm
18:14 18.9 °C 8.6 °C 1014.6 hPa NNE 6.8 km/h 11.3 km/h 51% 0.0 mm
18:19 18.8 °C 8.5 °C 1014.6 hPa NNE 6.5 km/h 11.3 km/h 51% 0.0 mm
18:24 18.8 °C 8.7 °C 1014.6 hPa NE 6.5 km/h 10.3 km/h 51.9% 0.0 mm
18:29 18.7 °C 8.6 °C 1014.6 hPa NE 6.5 km/h 11.9 km/h 52% 0.0 mm
18:34 18.7 °C 8.6 °C 1014.6 hPa NE 6.8 km/h 13.7 km/h 52% 0.0 mm
18:39 18.6 °C 8.8 °C 1014.6 hPa NE 6.9 km/h 14.5 km/h 52.8% 0.0 mm
18:44 18.6 °C 8.9 °C 1014.6 hPa NE 6.6 km/h 11.3 km/h 53.1% 0.0 mm
18:49 18.5 °C 9.1 °C 1014.6 hPa NE 6.5 km/h 14.8 km/h 54.3% 0.0 mm
18:54 18.4 °C 9.3 °C 1014.8 hPa NNE 7.7 km/h 14.5 km/h 55.5% 0.0 mm
18:59 18.3 °C 9.6 °C 1014.8 hPa NNE 8.4 km/h 11.3 km/h 56.7% 0.0 mm
19:04 18.3 °C 9.7 °C 1014.8 hPa NE 7 km/h 9.7 km/h 57.5% 0.0 mm
19:09 18.2 °C 9.8 °C 1014.8 hPa NE 6.5 km/h 11.1 km/h 58% 0.0 mm
19:14 18.2 °C 10 °C 1014.8 hPa NE 6.5 km/h 11.3 km/h 58.7% 0.0 mm
19:19 18.1 °C 10.2 °C 1014.8 hPa NE 6.5 km/h 9.7 km/h 59.9% 0.0 mm
19:24 18.1 °C 10.4 °C 1014.8 hPa NE 5.5 km/h 9.5 km/h 60.8% 0.0 mm
19:29 18 °C 10.4 °C 1014.7 hPa NE 5 km/h 10 km/h 61.2% 0.0 mm
19:34 17.9 °C 10.5 °C 1014.7 hPa NE 5.9 km/h 10 km/h 62% 0.0 mm
19:39 17.9 °C 10.7 °C 1015.0 hPa NE 6.5 km/h 9.7 km/h 62.8% 0.0 mm
19:44 17.8 °C 10.7 °C 1015.0 hPa NNE 6.5 km/h 9.7 km/h 63% 0.0 mm
19:49 17.8 °C 10.8 °C 1015.0 hPa NNE 6.5 km/h 8 km/h 63.7% 0.0 mm
19:54 17.7 °C 11 °C 1015.2 hPa North 5.5 km/h 9.5 km/h 64.5% 0.0 mm
19:59 17.6 °C 11 °C 1015.2 hPa North 5 km/h 9.7 km/h 65% 0.0 mm
20:04 17.6 °C 10.9 °C 1015.2 hPa NO 4.8 km/h 8 km/h 65.1% 0.0 mm
20:09 17.5 °C 11 °C 1015.2 hPa North 4.7 km/h 7.4 km/h 65.6% 0.0 mm
20:14 17.4 °C 10.7 °C 1015.2 hPa NNE 3.7 km/h 9.3 km/h 65% 0.0 mm
20:19 17.4 °C 10.7 °C 1015.2 hPa NNO 3.2 km/h 9.7 km/h 65% 0.0 mm
20:24 17.4 °C 10.7 °C 1015.3 hPa North 3.2 km/h 8.4 km/h 65% 0.0 mm
20:29 17.3 °C 10.7 °C 1015.3 hPa NNE 3.2 km/h 8.4 km/h 65% 0.0 mm
20:34 17.3 °C 10.7 °C 1015.3 hPa NNE 4.4 km/h 8 km/h 65% 0.0 mm
20:39 17.2 °C 10.6 °C 1015.3 hPa NNE 5 km/h 9.5 km/h 65% 0.0 mm
20:44 17.2 °C 10.7 °C 1015.0 hPa NNE 5 km/h 9.7 km/h 65.7% 0.0 mm
20:49 17.1 °C 10.7 °C 1015.0 hPa North 5 km/h 9.3 km/h 66.2% 0.0 mm
20:54 17.1 °C 10.8 °C 1015.0 hPa North 4.8 km/h 9.7 km/h 66.6% 0.0 mm
20:59 17 °C 10.6 °C 1014.9 hPa NE 4.7 km/h 8 km/h 66% 0.0 mm
21:04 17 °C 10.6 °C 1014.9 hPa NE 4.9 km/h 9.3 km/h 66% 0.0 mm
21:09 17.1 °C 10.6 °C 1014.9 hPa NNE 5 km/h 9.7 km/h 66% 0.0 mm
21:14 17 °C 10.8 °C 1014.7 hPa NNO 5.5 km/h 9.7 km/h 66.8% 0.0 mm
21:19 17 °C 10.8 °C 1014.7 hPa NNO 5.8 km/h 8 km/h 67% 0.0 mm
21:24 16.9 °C 10.7 °C 1014.7 hPa North 3.9 km/h 5.6 km/h 67% 0.0 mm
21:29 16.9 °C 10.7 °C 1014.4 hPa NNE 2.9 km/h 4.8 km/h 67% 0.0 mm
21:34 16.9 °C 10.9 °C 1014.4 hPa NNE 2.9 km/h 5.6 km/h 67.7% 0.0 mm
21:39 16.8 °C 10.8 °C 1014.5 hPa NNE 2.9 km/h 4.8 km/h 68% 0.0 mm
21:44 16.8 °C 10.8 °C 1014.5 hPa NNE 2.5 km/h 4.7 km/h 67.8% 0.0 mm
21:49 16.8 °C 10.7 °C 1014.5 hPa NNE 2.2 km/h 4.8 km/h 67.6% 0.0 mm
21:54 16.7 °C 10.6 °C 1014.8 hPa NNE 2.2 km/h 4.8 km/h 67% 0.0 mm
21:59 16.8 °C 10.6 °C 1014.8 hPa North 2.2 km/h 7.6 km/h 67% 0.0 mm
22:04 16.8 °C 10.4 °C 1014.8 hPa OSO 2.9 km/h 8.4 km/h 66.2% 0.0 mm
22:09 16.8 °C 10.2 °C 1015.2 hPa SO 3.2 km/h 8 km/h 65.1% 0.0 mm
22:14 16.8 °C 10.2 °C 1015.2 hPa SO 3.6 km/h 10.3 km/h 64.9% 0.0 mm
22:19 16.9 °C 10 °C 1015.2 hPa SO 3.9 km/h 11.3 km/h 64% 0.0 mm
22:24 16.9 °C 10 °C 1015.4 hPa SO 5.1 km/h 9.7 km/h 63.7% 0.0 mm
22:29 16.9 °C 9.8 °C 1015.4 hPa SO 5.8 km/h 8 km/h 63% 0.0 mm
22:34 16.9 °C 9.9 °C 1015.4 hPa NE 3.9 km/h 9.3 km/h 63% 0.0 mm
22:39 17 °C 10 °C 1015.4 hPa NE 2.9 km/h 9.7 km/h 63.5% 0.0 mm
22:44 17.1 °C 10.2 °C 1015.1 hPa Oeste 4.1 km/h 7.4 km/h 64% 0.0 mm
22:49 17.1 °C 10.2 °C 1015.1 hPa Oeste 4.7 km/h 8 km/h 64% 0.0 mm
22:54 17 °C 10.1 °C 1015.2 hPa Oeste 3.5 km/h 4.8 km/h 64% 0.0 mm
22:59 16.9 °C 9.9 °C 1015.2 hPa Oeste 2.9 km/h 7.4 km/h 63.3% 0.0 mm
23:04 16.9 °C 9.8 °C 1015.2 hPa OSO 2.9 km/h 8 km/h 63% 0.0 mm
23:09 16.9 °C 9.8 °C 1015.6 hPa OSO 2.9 km/h 8 km/h 63% 0.0 mm
23:14 16.9 °C 9.8 °C 1015.6 hPa NO 3.1 km/h 8 km/h 63% 0.0 mm
23:19 16.9 °C 9.8 °C 1015.6 hPa North 3.2 km/h 6.4 km/h 63% 0.0 mm
23:24 16.9 °C 9.7 °C 1015.7 hPa North 3 km/h 8.4 km/h 62.7% 0.0 mm
23:29 16.9 °C 10.5 °C 1015.7 hPa SSE 2.9 km/h 8 km/h 65.9% 0.0 mm
23:34 17 °C 11 °C 1015.7 hPa SE 4.3 km/h 8 km/h 67.8% 0.0 mm
23:39 17 °C 11.2 °C 1015.7 hPa SE 5 km/h 8.7 km/h 68.6% 0.0 mm
23:44 16.9 °C 11.4 °C 1015.4 hPa SSE 4.2 km/h 9.7 km/h 69.9% 0.0 mm
23:49 16.8 °C 11.4 °C 1015.4 hPa SE 3.9 km/h 8 km/h 70.5% 0.0 mm
23:54 16.8 °C 11.5 °C 1015.4 hPa ESE 3.4 km/h 8 km/h 71% 0.0 mm
23:59 16.7 °C 11.4 °C 1015.3 hPa ESE 3.2 km/h 1.6 km/h 71% 0.0 mm
Murcia-Puente Tocinos, España
Compliments of Weather Underground - 3 mb

La estación de MeteoMurcia.com, publica sus datos en los siguientes proyectos:

Weather Underground PWS IMURCIAP2 Meteoclimatic www.awekas.at

W3Counter
Web Analytics